createdAt,value
2019-01-19T00:00:42.142Z,99.99
2019-01-19T00:01:42.157Z,99.99
2019-01-19T00:02:42.096Z,99.99
2019-01-19T00:03:42.083Z,99.99
2019-01-19T00:04:42.069Z,99.99
2019-01-19T00:05:41.806Z,99.99
2019-01-19T00:06:41.795Z,99.99
2019-01-19T00:07:42.026Z,99.99
2019-01-19T00:08:42.020Z,99.99
2019-01-19T00:09:42.013Z,99.99
2019-01-19T00:10:41.987Z,99.99
2019-01-19T00:11:41.743Z,99.99
2019-01-19T00:12:41.713Z,99.99
2019-01-19T00:13:41.711Z,99.99
2019-01-19T00:14:41.930Z,99.99
2019-01-19T00:15:41.925Z,99.99
2019-01-19T00:16:41.674Z,99.99
2019-01-19T00:17:41.641Z,99.99
2019-01-19T00:18:41.694Z,99.99
2019-01-19T00:19:41.864Z,99.99
2019-01-19T00:20:41.860Z,99.99
2019-01-19T00:21:41.839Z,99.99
2019-01-19T00:22:41.830Z,99.99
2019-01-19T00:23:41.838Z,99.99
2019-01-19T00:24:41.857Z,99.99
2019-01-19T00:25:41.797Z,99.99
2019-01-19T00:26:41.779Z,99.99
2019-01-19T00:27:41.755Z,99.99
2019-01-19T00:28:41.755Z,99.99
2019-01-19T00:29:41.740Z,99.99
2019-01-19T00:30:41.738Z,99.99
2019-01-19T00:31:41.469Z,99.99
2019-01-19T00:32:41.714Z,99.99
2019-01-19T00:33:41.687Z,99.99
2019-01-19T00:34:41.412Z,99.99
2019-01-19T00:35:41.660Z,99.99
2019-01-19T00:36:41.387Z,99.99
2019-01-19T00:37:41.372Z,99.99
2019-01-19T00:38:41.609Z,99.99
2019-01-19T00:39:41.596Z,99.99
2019-01-19T00:40:41.590Z,99.99
2019-01-19T00:41:41.573Z,99.99
2019-01-19T00:42:41.593Z,99.99
2019-01-19T00:43:41.549Z,99.99
2019-01-19T00:44:41.529Z,99.99
2019-01-19T00:45:41.269Z,99.99
2019-01-19T00:46:41.508Z,99.99
2019-01-19T00:47:41.244Z,99.99
2019-01-19T00:48:41.486Z,99.99
2019-01-19T00:49:41.477Z,99.99
2019-01-19T00:50:41.207Z,99.99
2019-01-19T00:51:41.452Z,99.99
2019-01-19T00:52:41.171Z,99.99
2019-01-19T00:53:41.175Z,99.99
2019-01-19T00:54:41.392Z,99.99
2019-01-19T00:55:41.155Z,99.99
2019-01-19T00:56:41.130Z,99.99
2019-01-19T00:57:41.355Z,99.99
2019-01-19T00:58:41.346Z,99.99
2019-01-19T00:59:41.231Z,99.99
2019-01-19T01:00:41.317Z,99.99
2019-01-19T01:01:41.304Z,99.99
2019-01-19T01:02:41.283Z,99.99
2019-01-19T01:03:41.266Z,99.99
2019-01-19T01:04:41.262Z,99.99
2019-01-19T01:05:41.016Z,99.99
2019-01-19T01:06:41.231Z,99.99
2019-01-19T01:07:41.254Z,99.99
2019-01-19T01:08:41.221Z,99.99
2019-01-19T01:09:41.193Z,99.99
2019-01-19T01:10:40.931Z,99.99
2019-01-19T01:11:40.933Z,99.99
2019-01-19T01:12:40.906Z,99.99
2019-01-19T01:13:41.146Z,99.99
2019-01-19T01:14:40.871Z,99.99
2019-01-19T01:15:41.109Z,99.99
2019-01-19T01:16:41.095Z,99.99
2019-01-19T01:17:41.088Z,99.99
2019-01-19T01:18:41.080Z,99.99
2019-01-19T01:19:41.057Z,99.99
2019-01-19T01:20:41.048Z,99.99
2019-01-19T01:21:41.030Z,99.99
2019-01-19T01:22:41.036Z,99.99
2019-01-19T01:23:40.749Z,99.99
2019-01-19T01:24:40.983Z,99.99
2019-01-19T01:25:40.985Z,99.99
2019-01-19T01:26:40.960Z,99.99
2019-01-19T01:27:40.706Z,99.99
2019-01-19T01:28:40.979Z,99.99
2019-01-19T01:29:40.939Z,99.99
2019-01-19T01:30:40.912Z,99.99
2019-01-19T01:31:40.903Z,99.99
2019-01-19T01:32:40.645Z,99.99
2019-01-19T01:33:40.633Z,99.99
2019-01-19T01:34:40.607Z,99.99
2019-01-19T01:35:40.847Z,99.99
2019-01-19T01:36:40.822Z,99.99
2019-01-19T01:37:40.813Z,99.99
2019-01-19T01:38:40.549Z,99.99
2019-01-19T01:39:40.802Z,99.99
2019-01-19T01:40:40.768Z,99.99
2019-01-19T01:41:40.753Z,99.99
2019-01-19T01:42:40.742Z,99.99
2019-01-19T01:43:40.728Z,99.99
2019-01-19T01:44:40.483Z,99.99
2019-01-19T01:45:40.717Z,99.99
2019-01-19T01:46:40.439Z,99.99
2019-01-19T01:47:40.674Z,99.99
2019-01-19T01:48:40.407Z,99.99
2019-01-19T01:49:40.643Z,99.99
2019-01-19T01:50:40.637Z,99.99
2019-01-19T01:51:40.619Z,99.99
2019-01-19T01:52:40.363Z,99.99
2019-01-19T01:53:40.590Z,99.99
2019-01-19T01:54:40.582Z,99.99
2019-01-19T01:55:40.591Z,99.99
2019-01-19T01:56:40.552Z,99.99
2019-01-19T01:57:40.536Z,99.99
2019-01-19T01:58:40.272Z,99.99
2019-01-19T01:59:40.255Z,99.99
2019-01-19T02:00:40.497Z,99.99
2019-01-19T02:01:40.495Z,99.99
2019-01-19T02:02:40.484Z,99.99
2019-01-19T02:03:40.453Z,99.99
2019-01-19T02:04:40.455Z,99.99
2019-01-19T02:05:42.906Z,99.99
2019-01-19T02:06:40.413Z,99.99
2019-01-19T02:07:40.146Z,99.99
2019-01-19T02:08:40.401Z,99.99
2019-01-19T02:09:40.129Z,99.99
2019-01-19T02:10:40.926Z,99.99
2019-01-19T02:11:40.112Z,99.99
2019-01-19T02:12:40.335Z,99.99
2019-01-19T02:13:40.330Z,99.99
2019-01-19T02:14:40.312Z,99.99
2019-01-19T02:15:40.291Z,99.99
2019-01-19T02:16:40.032Z,99.99
2019-01-19T02:17:40.269Z,99.99
2019-01-19T02:18:40.256Z,99.99
2019-01-19T02:19:40.233Z,99.99
2019-01-19T02:20:40.215Z,99.99
2019-01-19T02:21:39.968Z,99.99
2019-01-19T02:22:40.194Z,99.99
2019-01-19T02:23:40.190Z,99.99
2019-01-19T02:24:40.161Z,99.99
2019-01-19T02:25:40.161Z,99.99
2019-01-19T02:26:40.142Z,99.99
2019-01-19T02:27:39.880Z,99.99
2019-01-19T02:28:40.118Z,99.99
2019-01-19T02:29:40.095Z,99.99
2019-01-19T02:30:40.104Z,99.99
2019-01-19T02:31:40.075Z,99.99
2019-01-19T02:32:40.076Z,99.99
2019-01-19T02:33:39.812Z,99.99
2019-01-19T02:34:40.019Z,99.99
2019-01-19T02:35:39.772Z,99.99
2019-01-19T02:36:40.004Z,99.99
2019-01-19T02:37:39.751Z,99.99
2019-01-19T02:38:39.973Z,99.99
2019-01-19T02:39:39.969Z,99.99
2019-01-19T02:40:39.942Z,99.99
2019-01-19T02:41:39.674Z,99.99
2019-01-19T02:42:39.922Z,99.99
2019-01-19T02:43:39.908Z,99.99
2019-01-19T02:44:39.882Z,99.99
2019-01-19T02:45:39.873Z,99.99
2019-01-19T02:46:39.615Z,99.99
2019-01-19T02:47:39.598Z,99.99
2019-01-19T02:48:39.848Z,99.99
2019-01-19T02:49:39.570Z,99.99
2019-01-19T02:50:39.819Z,99.99
2019-01-19T02:51:39.784Z,99.99
2019-01-19T02:52:39.774Z,99.99
2019-01-19T02:53:39.759Z,99.99
2019-01-19T02:54:39.500Z,99.99
2019-01-19T02:55:39.736Z,99.99
2019-01-19T02:56:39.725Z,99.99
2019-01-19T02:57:39.455Z,99.99
2019-01-19T02:58:39.685Z,99.99
2019-01-19T02:59:39.436Z,99.99
2019-01-19T03:00:39.413Z,99.99
2019-01-19T03:01:39.644Z,99.99
2019-01-19T03:02:39.640Z,99.99
2019-01-19T03:03:39.616Z,99.99
2019-01-19T03:04:39.634Z,99.99
2019-01-19T03:05:39.610Z,99.99
2019-01-19T03:06:39.574Z,99.99
2019-01-19T03:07:39.559Z,99.99
2019-01-19T03:08:39.296Z,99.99
2019-01-19T03:09:39.282Z,99.99
2019-01-19T03:10:39.523Z,99.99
2019-01-19T03:11:40.304Z,99.99
2019-01-19T03:12:39.244Z,99.99
2019-01-19T03:13:39.480Z,99.99
2019-01-19T03:14:39.221Z,99.99
2019-01-19T03:15:39.215Z,99.99
2019-01-19T03:16:39.487Z,99.99
2019-01-19T03:17:39.246Z,99.99
2019-01-19T03:18:39.440Z,99.99
2019-01-19T03:19:39.143Z,99.99
2019-01-19T03:20:39.144Z,99.99
2019-01-19T03:21:39.401Z,99.99
2019-01-19T03:22:39.396Z,99.99
2019-01-19T03:23:39.334Z,99.99
2019-01-19T03:24:39.084Z,99.99
2019-01-19T03:25:39.308Z,99.99
2019-01-19T03:26:39.299Z,99.99
2019-01-19T03:27:39.275Z,99.99
2019-01-19T03:28:39.013Z,99.99
2019-01-19T03:29:39.251Z,99.99
2019-01-19T03:30:38.985Z,99.99
2019-01-19T03:31:39.221Z,99.99
2019-01-19T03:32:39.214Z,99.99
2019-01-19T03:33:38.944Z,99.99
2019-01-19T03:34:39.184Z,99.99
2019-01-19T03:35:39.248Z,99.99
2019-01-19T03:36:39.154Z,99.99
2019-01-19T03:37:39.130Z,99.99
2019-01-19T03:38:39.113Z,99.99
2019-01-19T03:39:39.112Z,99.99
2019-01-19T03:40:39.094Z,99.99
2019-01-19T03:41:39.108Z,99.99
2019-01-19T03:42:39.066Z,99.99
2019-01-19T03:43:39.046Z,99.99
2019-01-19T03:44:39.026Z,99.99
2019-01-19T03:45:39.068Z,99.99
2019-01-19T03:46:39.110Z,99.99
2019-01-19T03:47:38.761Z,99.99
2019-01-19T03:48:38.984Z,99.99
2019-01-19T03:49:38.973Z,99.99
2019-01-19T03:50:38.708Z,99.99
2019-01-19T03:51:38.951Z,99.99
2019-01-19T03:52:38.925Z,99.99
2019-01-19T03:53:38.926Z,99.99
2019-01-19T03:54:38.654Z,99.99
2019-01-19T03:55:38.637Z,99.99
2019-01-19T03:56:38.885Z,99.99
2019-01-19T03:57:38.858Z,99.99
2019-01-19T03:58:38.850Z,99.99
2019-01-19T03:59:38.854Z,99.99
2019-01-19T04:00:38.820Z,99.99
2019-01-19T04:01:38.542Z,99.99
2019-01-19T04:02:38.784Z,99.99
2019-01-19T04:03:38.514Z,99.99
2019-01-19T04:04:38.760Z,99.99
2019-01-19T04:05:38.740Z,99.99
2019-01-19T04:06:38.721Z,99.99
2019-01-19T04:07:38.713Z,99.99
2019-01-19T04:08:38.443Z,99.99
2019-01-19T04:09:38.693Z,99.99
2019-01-19T04:10:38.684Z,99.99
2019-01-19T04:11:38.409Z,99.99
2019-01-19T04:12:38.659Z,99.99
2019-01-19T04:13:38.374Z,99.99
2019-01-19T04:14:38.371Z,99.99
2019-01-19T04:15:38.600Z,99.99
2019-01-19T04:16:38.618Z,99.99
2019-01-19T04:17:38.577Z,99.99
2019-01-19T04:18:38.550Z,99.99
2019-01-19T04:19:38.535Z,99.99
2019-01-19T04:20:38.518Z,99.99
2019-01-19T04:21:38.506Z,99.99
2019-01-19T04:22:38.295Z,99.99
2019-01-19T04:23:38.234Z,99.99
2019-01-19T04:24:38.477Z,99.99
2019-01-19T04:25:38.477Z,99.99
2019-01-19T04:26:38.441Z,99.99
2019-01-19T04:27:38.441Z,99.99
2019-01-19T04:28:38.171Z,99.99
2019-01-19T04:29:38.420Z,99.99
2019-01-19T04:30:38.395Z,99.99
2019-01-19T04:31:38.374Z,99.99
2019-01-19T04:32:38.357Z,99.99
2019-01-19T04:33:38.102Z,99.99
2019-01-19T04:34:38.077Z,99.99
2019-01-19T04:35:38.306Z,99.99
2019-01-19T04:36:38.314Z,99.99
2019-01-19T04:37:38.279Z,99.99
2019-01-19T04:38:38.026Z,99.99
2019-01-19T04:39:38.295Z,99.99
2019-01-19T04:40:38.233Z,99.99
2019-01-19T04:41:38.249Z,99.99
2019-01-19T04:42:38.212Z,99.99
2019-01-19T04:43:38.197Z,99.99
2019-01-19T04:44:38.177Z,99.99
2019-01-19T04:45:38.171Z,99.99
2019-01-19T04:46:37.926Z,99.99
2019-01-19T04:47:37.910Z,99.99
2019-01-19T04:48:38.136Z,99.99
2019-01-19T04:49:38.134Z,99.99
2019-01-19T04:50:37.879Z,99.99
2019-01-19T04:51:38.090Z,99.99
2019-01-19T04:52:37.819Z,99.99
2019-01-19T04:53:37.806Z,99.99
2019-01-19T04:54:37.790Z,99.99
2019-01-19T04:55:38.043Z,99.99
2019-01-19T04:56:38.007Z,99.99
2019-01-19T04:57:38.002Z,99.99
2019-01-19T04:58:37.983Z,99.99
2019-01-19T04:59:38.003Z,99.99
2019-01-19T05:00:37.710Z,99.99
2019-01-19T05:01:37.694Z,99.99
2019-01-19T05:02:37.681Z,99.99
2019-01-19T05:03:37.918Z,99.99
2019-01-19T05:04:37.930Z,99.99
2019-01-19T05:05:37.879Z,99.99
2019-01-19T05:06:37.865Z,99.99
2019-01-19T05:07:37.852Z,99.99
2019-01-19T05:08:37.874Z,99.99
2019-01-19T05:09:37.574Z,99.99
2019-01-19T05:10:37.564Z,99.99
2019-01-19T05:11:37.559Z,99.99
2019-01-19T05:12:38.689Z,99.99
2019-01-19T05:13:37.518Z,99.99
2019-01-19T05:14:37.766Z,99.99
2019-01-19T05:15:37.766Z,99.99
2019-01-19T05:16:37.736Z,99.99
2019-01-19T05:17:37.458Z,99.99
2019-01-19T05:18:37.449Z,99.99
2019-01-19T05:19:37.676Z,99.99
2019-01-19T05:20:37.669Z,99.99
2019-01-19T05:21:37.673Z,99.99
2019-01-19T05:22:37.640Z,99.99
2019-01-19T05:23:37.368Z,99.99
2019-01-19T05:24:37.617Z,99.99
2019-01-19T05:25:37.610Z,99.99
2019-01-19T05:26:37.588Z,99.99
2019-01-19T05:27:37.575Z,99.99
2019-01-19T05:28:37.548Z,99.99
2019-01-19T05:29:37.294Z,99.99
2019-01-19T05:30:37.542Z,99.99
2019-01-19T05:31:37.518Z,99.99
2019-01-19T05:32:37.540Z,99.99
2019-01-19T05:33:37.485Z,99.99
2019-01-19T05:34:37.230Z,99.99
2019-01-19T05:35:37.466Z,99.99
2019-01-19T05:36:40.726Z,99.99
2019-01-19T05:37:37.416Z,99.99
2019-01-19T05:38:37.414Z,99.99
2019-01-19T05:39:37.400Z,99.99
2019-01-19T05:40:37.137Z,99.99
2019-01-19T05:41:37.109Z,99.99
2019-01-19T05:42:37.342Z,99.99
2019-01-19T05:43:37.331Z,99.99
2019-01-19T05:44:37.310Z,99.99
2019-01-19T05:45:37.050Z,99.99
2019-01-19T05:46:37.049Z,99.99
2019-01-19T05:47:37.267Z,99.99
2019-01-19T05:48:37.255Z,99.99
2019-01-19T05:49:37.010Z,99.99
2019-01-19T05:50:37.232Z,99.99
2019-01-19T05:51:37.230Z,99.99
2019-01-19T05:52:37.193Z,99.99
2019-01-19T05:53:36.932Z,99.99
2019-01-19T05:54:36.917Z,99.99
2019-01-19T05:55:37.173Z,99.99
2019-01-19T05:56:37.145Z,99.99
2019-01-19T05:57:37.121Z,99.99
2019-01-19T05:58:36.856Z,99.99
2019-01-19T05:59:36.851Z,99.99
2019-01-19T06:00:37.091Z,99.99
2019-01-19T06:01:37.086Z,99.99
2019-01-19T06:02:36.805Z,99.99
2019-01-19T06:03:37.041Z,99.99
2019-01-19T06:04:36.796Z,99.99
2019-01-19T06:05:37.010Z,99.99
2019-01-19T06:06:36.993Z,99.99
2019-01-19T06:07:36.729Z,99.99
2019-01-19T06:08:36.972Z,99.99
2019-01-19T06:09:36.959Z,99.99
2019-01-19T06:10:36.957Z,99.99
2019-01-19T06:11:36.918Z,99.99
2019-01-19T06:12:36.944Z,99.99
2019-01-19T06:13:36.912Z,99.99
2019-01-19T06:14:36.893Z,99.99
2019-01-19T06:15:36.871Z,99.99
2019-01-19T06:16:36.598Z,99.99
2019-01-19T06:17:36.827Z,99.99
2019-01-19T06:18:36.573Z,99.99
2019-01-19T06:19:36.796Z,99.99
2019-01-19T06:20:36.536Z,99.99
2019-01-19T06:21:36.777Z,99.99
2019-01-19T06:22:36.751Z,99.99
2019-01-19T06:23:36.499Z,99.99
2019-01-19T06:24:36.495Z,99.99
2019-01-19T06:25:36.716Z,99.99
2019-01-19T06:26:36.707Z,99.99
2019-01-19T06:27:36.680Z,99.99
2019-01-19T06:28:36.670Z,99.99
2019-01-19T06:29:36.661Z,99.99
2019-01-19T06:30:36.396Z,99.99
2019-01-19T06:31:36.382Z,99.99
2019-01-19T06:32:36.365Z,99.99
2019-01-19T06:33:36.600Z,99.99
2019-01-19T06:34:36.578Z,99.99
2019-01-19T06:35:36.569Z,99.99
2019-01-19T06:36:36.323Z,99.99
2019-01-19T06:37:36.283Z,99.99
2019-01-19T06:38:36.516Z,99.99
2019-01-19T06:39:36.262Z,99.99
2019-01-19T06:40:36.492Z,99.99
2019-01-19T06:41:36.476Z,99.99
2019-01-19T06:42:36.467Z,99.99
2019-01-19T06:43:36.194Z,99.99
2019-01-19T06:44:36.438Z,99.99
2019-01-19T06:45:36.168Z,99.99
2019-01-19T06:46:36.408Z,99.99
2019-01-19T06:47:36.141Z,99.99
2019-01-19T06:48:36.368Z,99.99
2019-01-19T06:49:36.109Z,99.99
2019-01-19T06:50:36.100Z,99.99
2019-01-19T06:51:36.077Z,99.99
2019-01-19T06:52:36.080Z,99.99
2019-01-19T06:53:36.290Z,99.99
2019-01-19T06:54:36.033Z,99.99
2019-01-19T06:55:36.270Z,99.99
2019-01-19T06:56:36.263Z,99.99
2019-01-19T06:57:36.234Z,99.99
2019-01-19T06:58:36.222Z,99.99
2019-01-19T06:59:36.210Z,99.99
2019-01-19T07:00:36.188Z,99.99
2019-01-19T07:01:36.179Z,99.99
2019-01-19T07:02:35.911Z,99.99
2019-01-19T07:03:36.150Z,99.99
2019-01-19T07:04:35.885Z,99.99
2019-01-19T07:05:35.866Z,99.99
2019-01-19T07:06:36.120Z,99.99
2019-01-19T07:07:36.088Z,99.99
2019-01-19T07:08:35.818Z,99.99
2019-01-19T07:09:36.062Z,99.99
2019-01-19T07:10:36.078Z,99.99
2019-01-19T07:11:36.027Z,99.99
2019-01-19T07:12:36.019Z,99.99
2019-01-19T07:13:36.003Z,99.99
2019-01-19T07:14:35.740Z,99.99
2019-01-19T07:15:35.974Z,99.99
2019-01-19T07:16:35.950Z,99.99
2019-01-19T07:17:35.931Z,99.99
2019-01-19T07:18:35.919Z,99.99
2019-01-19T07:19:35.904Z,99.99
2019-01-19T07:20:35.903Z,99.99
2019-01-19T07:21:35.881Z,99.99
2019-01-19T07:22:35.857Z,99.99
2019-01-19T07:23:35.842Z,99.99
2019-01-19T07:24:35.591Z,99.99
2019-01-19T07:25:35.572Z,99.99
2019-01-19T07:26:35.570Z,99.99
2019-01-19T07:27:35.791Z,99.99
2019-01-19T07:28:35.526Z,99.99
2019-01-19T07:29:35.511Z,99.99
2019-01-19T07:30:35.762Z,99.99
2019-01-19T07:31:35.734Z,99.99
2019-01-19T07:32:35.471Z,99.99
2019-01-19T07:33:35.450Z,99.99
2019-01-19T07:34:35.701Z,99.99
2019-01-19T07:35:35.671Z,99.99
2019-01-19T07:36:35.407Z,99.99
2019-01-19T07:37:35.640Z,99.99
2019-01-19T07:38:35.387Z,99.99
2019-01-19T07:39:35.617Z,99.99
2019-01-19T07:40:35.601Z,99.99
2019-01-19T07:41:35.597Z,99.99
2019-01-19T07:42:36.463Z,99.99
2019-01-19T07:43:35.331Z,99.99
2019-01-19T07:44:35.552Z,99.99
2019-01-19T07:45:35.530Z,99.99
2019-01-19T07:46:35.272Z,99.99
2019-01-19T07:47:35.884Z,99.99
2019-01-19T07:48:35.499Z,99.99
2019-01-19T07:49:35.493Z,99.99
2019-01-19T07:50:35.221Z,99.99
2019-01-19T07:51:35.204Z,99.99
2019-01-19T07:52:35.452Z,99.99
2019-01-19T07:53:35.437Z,99.99
2019-01-19T07:54:35.166Z,99.99
2019-01-19T07:55:35.424Z,99.99
2019-01-19T07:56:35.142Z,99.99
2019-01-19T07:57:35.378Z,99.99
2019-01-19T07:58:35.127Z,99.99
2019-01-19T07:59:35.351Z,99.99
2019-01-19T08:00:35.332Z,99.99
2019-01-19T08:01:35.323Z,99.99
2019-01-19T08:02:35.299Z,99.99
2019-01-19T08:03:35.288Z,99.99
2019-01-19T08:04:35.301Z,99.99
2019-01-19T08:05:35.263Z,99.99
2019-01-19T08:06:35.260Z,99.99
2019-01-19T08:07:34.993Z,99.99
2019-01-19T08:08:35.240Z,99.99
2019-01-19T08:09:35.783Z,99.99
2019-01-19T08:10:34.946Z,99.99
2019-01-19T08:11:34.933Z,99.99
2019-01-19T08:12:35.175Z,99.99
2019-01-19T08:13:35.158Z,99.99
2019-01-19T08:14:35.153Z,99.99
2019-01-19T08:15:35.145Z,99.99
2019-01-19T08:16:35.134Z,99.99
2019-01-19T08:17:34.866Z,99.99
2019-01-19T08:18:35.102Z,99.99
2019-01-19T08:19:35.097Z,99.99
2019-01-19T08:20:34.820Z,99.99
2019-01-19T08:21:35.061Z,99.99
2019-01-19T08:22:35.034Z,99.99
2019-01-19T08:23:35.036Z,99.99
2019-01-19T08:24:34.762Z,99.99
2019-01-19T08:25:34.759Z,99.99
2019-01-19T08:26:35.005Z,99.99
2019-01-19T08:27:34.974Z,99.99
2019-01-19T08:28:34.729Z,99.99
2019-01-19T08:29:34.695Z,99.99
2019-01-19T08:30:34.934Z,99.99
2019-01-19T08:31:34.667Z,99.99
2019-01-19T08:32:34.899Z,99.99
2019-01-19T08:33:34.906Z,99.99
2019-01-19T08:34:34.632Z,99.99
2019-01-19T08:35:34.869Z,99.99
2019-01-19T08:36:34.868Z,99.99
2019-01-19T08:37:34.849Z,99.99
2019-01-19T08:38:34.586Z,99.99
2019-01-19T08:39:34.819Z,99.99
2019-01-19T08:40:34.546Z,99.99
2019-01-19T08:41:34.547Z,99.99
2019-01-19T08:42:34.522Z,99.99
2019-01-19T08:43:34.517Z,99.99
2019-01-19T08:44:34.496Z,99.99
2019-01-19T08:45:34.730Z,99.99
2019-01-19T08:46:34.472Z,99.99
2019-01-19T08:47:34.704Z,99.99
2019-01-19T08:48:34.696Z,99.99
2019-01-19T08:49:34.684Z,99.99
2019-01-19T08:50:34.500Z,99.99
2019-01-19T08:51:34.654Z,99.99
2019-01-19T08:52:34.390Z,99.99
2019-01-19T08:53:34.632Z,99.99
2019-01-19T08:54:34.370Z,99.99
2019-01-19T08:55:34.601Z,99.99
2019-01-19T08:56:34.357Z,99.99
2019-01-19T08:57:34.342Z,99.99
2019-01-19T08:58:34.586Z,99.99
2019-01-19T08:59:34.550Z,99.99
2019-01-19T09:00:34.544Z,99.99
2019-01-19T09:01:34.577Z,99.99
2019-01-19T09:02:34.516Z,99.99
2019-01-19T09:03:34.265Z,99.99
2019-01-19T09:04:34.485Z,99.99
2019-01-19T09:05:34.494Z,99.99
2019-01-19T09:06:34.211Z,99.99
2019-01-19T09:07:36.434Z,99.99
2019-01-19T09:08:34.443Z,99.99
2019-01-19T09:09:34.176Z,99.99
2019-01-19T09:10:34.184Z,99.99
2019-01-19T09:11:34.413Z,99.99
2019-01-19T09:12:34.387Z,99.99
2019-01-19T09:13:34.122Z,99.99
2019-01-19T09:14:34.111Z,99.99
2019-01-19T09:15:34.346Z,99.99
2019-01-19T09:16:39.547Z,99.99
2019-01-19T09:17:34.330Z,99.99
2019-01-19T09:18:34.452Z,99.99
2019-01-19T09:19:34.053Z,99.99
2019-01-19T09:20:34.034Z,99.99
2019-01-19T09:21:34.027Z,99.99
2019-01-19T09:22:34.501Z,99.99
2019-01-19T09:23:34.017Z,99.99
2019-01-19T09:24:34.240Z,99.99
2019-01-19T09:25:34.239Z,99.61
2019-01-19T09:26:34.211Z,99.52
2019-01-19T09:27:33.944Z,99.42
2019-01-19T09:28:35.225Z,99.71
2019-01-19T09:29:34.176Z,99.99
2019-01-19T09:30:34.166Z,99.99
2019-01-19T09:31:34.151Z,99.99
2019-01-19T09:32:33.887Z,99.99
2019-01-19T09:33:33.875Z,99.99
2019-01-19T09:34:36.460Z,99.99
2019-01-19T09:35:34.094Z,99.95
2019-01-19T09:36:34.103Z,99.47
2019-01-19T09:37:40.642Z,98.05
2019-01-19T09:38:33.813Z,98.05
2019-01-19T09:39:34.063Z,97.49
2019-01-19T09:40:33.785Z,97.39
2019-01-19T09:41:34.030Z,95.88
2019-01-19T09:42:33.766Z,94.93
2019-01-19T09:43:33.757Z,94.37
2019-01-19T09:44:33.738Z,94.93
2019-01-19T09:45:35.091Z,95.59
2019-01-19T09:46:33.972Z,94.93
2019-01-19T09:47:33.956Z,95.97
2019-01-19T09:48:33.707Z,96.64
2019-01-19T09:49:33.927Z,96.26
2019-01-19T09:50:33.938Z,96.64
2019-01-19T09:51:34.019Z,96.73
2019-01-19T09:52:33.657Z,96.73
2019-01-19T09:53:33.628Z,96.45
2019-01-19T09:54:33.874Z,95.97
2019-01-19T09:55:33.866Z,94.93
2019-01-19T09:56:33.843Z,94.18
2019-01-19T09:57:33.587Z,93.99
2019-01-19T09:58:33.584Z,94.18
2019-01-19T09:59:33.813Z,94.27
2019-01-19T10:00:45.465Z,94.93
2019-01-19T10:01:33.796Z,95.21
2019-01-19T10:02:33.532Z,94.56
2019-01-19T10:03:33.646Z,93.89
2019-01-19T10:04:33.748Z,93.8
2019-01-19T10:05:33.493Z,93.23
2019-01-19T10:06:33.723Z,92.71
2019-01-19T10:07:33.721Z,91.96
2019-01-19T10:08:33.478Z,91.43
2019-01-19T10:09:33.446Z,91.05
2019-01-19T10:10:33.687Z,91.43
2019-01-19T10:11:33.420Z,91.53
2019-01-19T10:12:33.464Z,90.96
2019-01-19T10:13:33.650Z,91.24
2019-01-19T10:14:33.394Z,90.86
2019-01-19T10:15:33.381Z,90.58
2019-01-19T10:16:33.614Z,90.86
2019-01-19T10:17:33.614Z,90.86
2019-01-19T10:18:33.671Z,90.68
2019-01-19T10:19:33.593Z,90.77
2019-01-19T10:20:33.861Z,90.91
2019-01-19T10:21:33.319Z,91.77
2019-01-19T10:22:33.547Z,91.58
2019-01-19T10:23:33.537Z,91.2
2019-01-19T10:24:33.524Z,91.01
2019-01-19T10:25:33.527Z,90.34
2019-01-19T10:26:33.500Z,90.44
2019-01-19T10:27:39.902Z,90.25
2019-01-19T10:28:33.247Z,90.06
2019-01-19T10:29:33.475Z,90.06
2019-01-19T10:30:33.212Z,91.29
2019-01-19T10:31:33.451Z,91.2
2019-01-19T10:32:33.439Z,90.82
2019-01-19T10:33:33.178Z,90.53
2019-01-19T10:34:33.410Z,90.53
2019-01-19T10:35:33.408Z,90.25
2019-01-19T10:36:33.389Z,89.87
2019-01-19T10:37:33.377Z,89.12
2019-01-19T10:38:33.384Z,87.41
2019-01-19T10:39:33.353Z,87.04
2019-01-19T10:40:33.363Z,85.8
2019-01-19T10:41:40.614Z,85.71
2019-01-19T10:42:33.317Z,86.56
2019-01-19T10:43:33.319Z,85.8
2019-01-19T10:44:33.303Z,85.61
2019-01-19T10:45:33.345Z,87.23
2019-01-19T10:46:33.276Z,87.23
2019-01-19T10:47:33.264Z,87.41
2019-01-19T10:48:33.255Z,87.51
2019-01-19T10:49:33.257Z,87.79
2019-01-19T10:50:33.249Z,86.66
2019-01-19T10:51:33.247Z,85.52
2019-01-19T10:52:33.228Z,84.95
2019-01-19T10:53:32.948Z,85.05
2019-01-19T10:54:32.963Z,85.52
2019-01-19T10:55:32.936Z,85.9
2019-01-19T10:56:32.941Z,86.28
2019-01-19T10:57:32.900Z,86.37
2019-01-19T10:58:33.141Z,87.51
2019-01-19T10:59:33.126Z,87.51
2019-01-19T11:00:32.880Z,85.42
2019-01-19T11:01:33.109Z,84.58
2019-01-19T11:02:33.109Z,84.58
2019-01-19T11:03:33.087Z,85.14
2019-01-19T11:04:33.070Z,85.61
2019-01-19T11:05:33.069Z,85.9
2019-01-19T11:06:32.797Z,86.37
2019-01-19T11:07:32.815Z,85.9
2019-01-19T11:08:32.772Z,86.18
2019-01-19T11:09:32.769Z,86.94
2019-01-19T11:10:33.052Z,87.13
2019-01-19T11:11:32.993Z,87.04
2019-01-19T11:12:32.730Z,86.47
2019-01-19T11:13:32.729Z,86.18
2019-01-19T11:14:32.959Z,85.42
2019-01-19T11:15:32.942Z,85.52
2019-01-19T11:16:32.697Z,85.9
2019-01-19T11:17:32.672Z,86.85
2019-01-19T11:18:32.911Z,85.71
2019-01-19T11:19:32.909Z,87.23
2019-01-19T11:20:32.892Z,87.6
2019-01-19T11:21:32.885Z,86.56
2019-01-19T11:22:32.862Z,85.71
2019-01-19T11:23:39.579Z,85.9
2019-01-19T11:24:32.846Z,85.8
2019-01-19T11:25:32.637Z,85.14
2019-01-19T11:26:32.833Z,84.95
2019-01-19T11:27:32.554Z,84.67
2019-01-19T11:28:32.793Z,84.95
2019-01-19T11:29:32.549Z,84.67
2019-01-19T11:30:32.783Z,86.33
2019-01-19T11:31:32.507Z,87.37
2019-01-19T11:32:32.764Z,86.75
2019-01-19T11:33:32.739Z,86.71
2019-01-19T11:34:32.487Z,85.9
2019-01-19T11:35:32.460Z,85.85
2019-01-19T11:36:32.699Z,87.27
2019-01-19T11:37:32.671Z,87.7
2019-01-19T11:38:32.680Z,85.8
2019-01-19T11:39:32.665Z,86.42
2019-01-19T11:40:32.463Z,88.31
2019-01-19T11:41:32.636Z,87.51
2019-01-19T11:42:32.631Z,86.75
2019-01-19T11:43:32.365Z,86.56
2019-01-19T11:44:32.625Z,86.75
2019-01-19T11:45:32.592Z,85.52
2019-01-19T11:46:32.577Z,85.33
2019-01-19T11:47:32.587Z,85.8
2019-01-19T11:48:32.553Z,85.52
2019-01-19T11:49:32.541Z,85.71
2019-01-19T11:50:32.533Z,85.52
2019-01-19T11:51:32.268Z,85.14
2019-01-19T11:52:32.260Z,85.71
2019-01-19T11:53:32.497Z,85.42
2019-01-19T11:54:32.238Z,85.76
2019-01-19T11:55:32.248Z,86.28
2019-01-19T11:56:32.215Z,86.66
2019-01-19T11:57:32.456Z,86.37
2019-01-19T11:58:32.511Z,84.58
2019-01-19T11:59:32.442Z,85.14
2019-01-19T12:00:32.166Z,85.14
2019-01-19T12:01:32.153Z,84.39
2019-01-19T12:02:39.381Z,85.76
2019-01-19T12:03:32.121Z,85.71
2019-01-19T12:04:33.031Z,86.18
2019-01-19T12:05:32.356Z,85.71
2019-01-19T12:06:32.342Z,85.61
2019-01-19T12:07:32.336Z,85.52
2019-01-19T12:08:32.319Z,85.52
2019-01-19T12:09:32.308Z,85.42
2019-01-19T12:10:32.048Z,85.71
2019-01-19T12:11:32.286Z,86.9
2019-01-19T12:12:32.286Z,86.75
2019-01-19T12:13:32.252Z,87.04
2019-01-19T12:14:32.246Z,86.28
2019-01-19T12:15:32.236Z,86.09
2019-01-19T12:16:32.226Z,85.71
2019-01-19T12:17:32.028Z,85.61
2019-01-19T12:18:32.196Z,85.71
2019-01-19T12:19:32.188Z,85.42
2019-01-19T12:20:32.191Z,86.47
2019-01-19T12:21:32.152Z,86.09
2019-01-19T12:22:31.945Z,85.99
2019-01-19T12:23:31.896Z,86.37
2019-01-19T12:24:31.874Z,85.52
2019-01-19T12:25:32.106Z,86.56
2019-01-19T12:26:32.099Z,86.56
2019-01-19T12:27:32.081Z,85.61
2019-01-19T12:28:32.077Z,85.8
2019-01-19T12:29:32.069Z,85.42
2019-01-19T12:30:31.802Z,86.18
2019-01-19T12:31:32.035Z,85.33
2019-01-19T12:32:31.781Z,84.86
2019-01-19T12:33:31.772Z,85.05
2019-01-19T12:34:31.747Z,85.9
2019-01-19T12:35:31.740Z,85.42
2019-01-19T12:36:32.105Z,85.52
2019-01-19T12:37:31.986Z,85.05
2019-01-19T12:38:31.964Z,85.52
2019-01-19T12:39:31.940Z,85.05
2019-01-19T12:40:31.956Z,85.14
2019-01-19T12:41:31.921Z,85.61
2019-01-19T12:42:31.657Z,85.33
2019-01-19T12:43:31.646Z,84.67
2019-01-19T12:44:31.983Z,84.77
2019-01-19T12:45:31.905Z,84.2
2019-01-19T12:46:31.877Z,84.86
2019-01-19T12:47:31.842Z,84.86
2019-01-19T12:48:31.590Z,84.77
2019-01-19T12:49:31.581Z,84.29
2019-01-19T12:50:31.580Z,84.95
2019-01-19T12:52:31.786Z,84.95
2019-01-19T12:53:31.779Z,84.86
2019-01-19T12:54:31.794Z,84.39